createdAt,value
2022-11-04T00:01:59.383Z,10.50
2022-11-04T00:04:27.482Z,10.60
2022-11-04T00:06:54.998Z,10.60
2022-11-04T00:09:23.456Z,10.60
2022-11-04T00:12:08.722Z,10.60
2022-11-04T00:14:35.934Z,10.50
2022-11-04T00:17:22.245Z,10.60
2022-11-04T00:20:11.820Z,10.60
2022-11-04T00:22:57.983Z,10.60
2022-11-04T00:25:43.970Z,10.60
2022-11-04T00:28:36.618Z,10.60
2022-11-04T00:31:24.319Z,10.60
2022-11-04T00:33:51.890Z,10.60
2022-11-04T00:36:19.069Z,10.70
2022-11-04T00:38:45.992Z,10.70
2022-11-04T00:41:28.803Z,10.80
2022-11-04T00:43:57.440Z,10.80
2022-11-04T00:46:24.607Z,10.70
2022-11-04T00:48:51.465Z,10.80
2022-11-04T00:51:18.328Z,10.80
2022-11-04T00:53:45.382Z,10.80
2022-11-04T00:56:12.215Z,10.90
2022-11-04T00:58:39.062Z,10.80
2022-11-04T01:01:09.657Z,10.90
2022-11-04T01:03:36.799Z,10.80
2022-11-04T01:06:03.916Z,10.80
2022-11-04T01:08:30.802Z,10.80
2022-11-04T01:11:01.232Z,10.80
2022-11-04T01:13:28.061Z,10.80
2022-11-04T01:15:54.887Z,10.70
2022-11-04T01:18:22.177Z,10.80
2022-11-04T01:20:48.958Z,10.70
2022-11-04T01:23:15.825Z,10.70
2022-11-04T01:25:42.653Z,10.70
2022-11-04T01:28:09.771Z,10.70
2022-11-04T01:30:40.036Z,10.70
2022-11-04T01:33:06.897Z,10.70
2022-11-04T01:35:33.798Z,10.60
2022-11-04T01:38:00.627Z,10.50
2022-11-04T01:40:27.491Z,10.50
2022-11-04T01:42:54.345Z,10.50
2022-11-04T01:45:21.988Z,10.50
2022-11-04T01:47:54.331Z,10.40
2022-11-04T01:50:22.938Z,10.50
2022-11-04T01:52:54.426Z,10.40
2022-11-04T01:55:23.762Z,10.40
2022-11-04T01:57:51.330Z,10.30
2022-11-04T02:00:18.693Z,10.40
2022-11-04T02:03:06.471Z,10.40
2022-11-04T02:05:33.897Z,10.40
2022-11-04T02:08:02.942Z,10.30
2022-11-04T02:10:32.509Z,10.20
2022-11-04T02:13:00.807Z,10.30
2022-11-04T02:15:48.598Z,10.20
2022-11-04T02:18:24.296Z,10.30
2022-11-04T02:21:17.650Z,10.30
2022-11-04T02:23:50.925Z,10.20
2022-11-04T02:26:26.949Z,10.20
2022-11-04T02:29:08.998Z,10.20
2022-11-04T02:31:42.625Z,10.20
2022-11-04T02:34:22.134Z,10.20
2022-11-04T02:37:04.255Z,10.20
2022-11-04T02:39:31.075Z,10.20
2022-11-04T02:42:01.662Z,10.20
2022-11-04T02:44:35.132Z,10.10
2022-11-04T02:47:05.090Z,10.10
2022-11-04T02:49:36.189Z,10.10
2022-11-04T02:52:05.848Z,10.10
2022-11-04T02:54:44.650Z,10.10
2022-11-04T02:57:15.862Z,10.00
2022-11-04T02:59:47.993Z,9.90
2022-11-04T03:02:18.350Z,9.80
2022-11-04T03:04:47.628Z,9.90
2022-11-04T03:07:17.768Z,10.00
2022-11-04T03:09:47.965Z,9.90
2022-11-04T03:12:16.922Z,9.90
2022-11-04T03:14:47.188Z,9.90
2022-11-04T03:17:17.673Z,9.80
2022-11-04T03:19:57.877Z,9.70
2022-11-04T03:22:33.259Z,9.80
2022-11-04T03:25:01.174Z,9.80
2022-11-04T03:27:28.005Z,9.80
2022-11-04T03:30:01.274Z,9.80
2022-11-04T03:32:54.449Z,9.80
2022-11-04T03:35:21.486Z,9.80
2022-11-04T03:37:49.457Z,9.80
2022-11-04T03:40:17.162Z,9.80
2022-11-04T03:42:46.886Z,9.70
2022-11-04T03:45:14.169Z,9.60
2022-11-04T03:47:42.348Z,9.70
2022-11-04T03:50:12.411Z,9.50
2022-11-04T03:52:39.695Z,9.50
2022-11-04T03:55:07.410Z,9.50
2022-11-04T03:57:50.257Z,9.50
2022-11-04T04:00:18.727Z,9.60
2022-11-04T04:02:57.491Z,9.60
2022-11-04T04:05:29.932Z,9.50
2022-11-04T04:07:56.824Z,9.50
2022-11-04T04:10:41.704Z,9.40
2022-11-04T04:13:30.031Z,9.50
2022-11-04T04:16:02.978Z,9.50
2022-11-04T04:18:41.014Z,9.50
2022-11-04T04:21:09.553Z,9.50
2022-11-04T04:23:56.095Z,9.40
2022-11-04T04:26:43.287Z,9.40
2022-11-04T04:29:10.892Z,9.30
2022-11-04T04:31:50.372Z,9.30
2022-11-04T04:34:19.139Z,9.30
2022-11-04T04:36:51.793Z,9.30
2022-11-04T04:39:38.877Z,9.30
2022-11-04T04:42:24.889Z,9.30
2022-11-04T04:45:01.682Z,9.30
2022-11-04T04:47:46.965Z,9.30
2022-11-04T04:50:15.918Z,9.30
2022-11-04T04:52:44.678Z,9.20
2022-11-04T04:55:12.154Z,9.30
2022-11-04T04:57:38.960Z,9.30
2022-11-04T05:00:07.587Z,9.20
2022-11-04T05:02:34.819Z,9.10
2022-11-04T05:05:01.939Z,9.00
2022-11-04T05:07:28.907Z,8.90
2022-11-04T05:09:55.743Z,8.80
2022-11-04T05:12:22.677Z,8.80
2022-11-04T05:14:49.570Z,8.70
2022-11-04T05:17:16.443Z,8.60
2022-11-04T05:19:43.258Z,8.60
2022-11-04T05:22:10.091Z,8.60
2022-11-04T05:24:36.852Z,8.70
2022-11-04T05:27:03.675Z,8.70
2022-11-04T05:29:30.508Z,8.50
2022-11-04T05:31:57.366Z,8.60
2022-11-04T05:34:24.190Z,8.90
2022-11-04T05:36:51.090Z,8.70
2022-11-04T05:39:17.897Z,8.50
2022-11-04T05:41:44.722Z,8.40
2022-11-04T05:44:11.645Z,8.50
2022-11-04T05:46:38.531Z,8.40
2022-11-04T05:49:05.649Z,8.40
2022-11-04T05:51:33.132Z,8.30
2022-11-04T05:54:00.222Z,8.20
2022-11-04T05:56:27.386Z,8.20
2022-11-04T05:58:54.300Z,8.20
2022-11-04T06:01:24.423Z,8.30
2022-11-04T06:03:51.937Z,8.40
2022-11-04T06:06:19.064Z,8.50
2022-11-04T06:08:45.818Z,8.40
2022-11-04T06:11:12.867Z,8.50
2022-11-04T06:13:39.694Z,8.50
2022-11-04T06:16:06.720Z,8.60
2022-11-04T06:18:33.551Z,8.50
2022-11-04T06:21:11.383Z,8.60
2022-11-04T06:23:38.224Z,8.50
2022-11-04T06:26:05.741Z,8.60
2022-11-04T06:28:32.925Z,8.60
2022-11-04T06:31:00.737Z,8.70
2022-11-04T06:33:28.940Z,8.60
2022-11-04T06:35:57.759Z,8.70
2022-11-04T06:38:24.736Z,8.50
2022-11-04T06:40:51.798Z,8.50
2022-11-04T06:43:18.609Z,8.40
2022-11-04T06:45:52.660Z,8.40
2022-11-04T06:48:19.502Z,8.40
2022-11-04T06:50:46.291Z,8.50
2022-11-04T06:53:13.812Z,8.40
2022-11-04T06:55:40.656Z,8.50
2022-11-04T06:58:07.452Z,8.60
2022-11-04T07:00:34.306Z,8.60
2022-11-04T07:03:01.419Z,8.50
2022-11-04T07:05:28.330Z,8.50
2022-11-04T07:07:55.431Z,8.50
2022-11-04T07:10:22.190Z,8.50
2022-11-04T07:12:48.992Z,8.50
2022-11-04T07:15:15.924Z,8.50
2022-11-04T07:17:44.453Z,8.50
2022-11-04T07:20:13.232Z,8.50
2022-11-04T07:22:40.035Z,8.40
2022-11-04T07:25:07.001Z,8.50
2022-11-04T07:27:33.802Z,8.70
2022-11-04T07:30:00.657Z,8.70
2022-11-04T07:32:27.906Z,8.70
2022-11-04T07:34:54.751Z,8.80
2022-11-04T07:37:21.580Z,8.80
2022-11-04T07:39:48.361Z,9.00
2022-11-04T07:42:15.113Z,9.00
2022-11-04T07:44:41.933Z,9.00
2022-11-04T07:47:08.779Z,9.20
2022-11-04T07:49:35.682Z,9.30
2022-11-04T07:52:02.542Z,9.30
2022-11-04T07:54:29.333Z,9.40
2022-11-04T07:56:56.176Z,9.50
2022-11-04T07:59:23.061Z,9.60
2022-11-04T08:01:50.060Z,9.60
2022-11-04T08:04:17.011Z,9.70
2022-11-04T08:06:43.888Z,9.80
2022-11-04T08:09:10.726Z,9.80
2022-11-04T08:11:37.525Z,9.90
2022-11-04T08:14:04.766Z,10.00
2022-11-04T08:16:34.565Z,10.20
2022-11-04T08:19:02.576Z,10.10
2022-11-04T08:21:30.417Z,10.20
2022-11-04T08:23:57.238Z,10.30
2022-11-04T08:26:24.397Z,10.30
2022-11-04T08:28:51.749Z,10.40
2022-11-04T08:31:24.357Z,10.40
2022-11-04T08:33:51.809Z,10.60
2022-11-04T08:36:20.595Z,11.00
2022-11-04T08:38:47.786Z,11.00
2022-11-04T08:41:15.775Z,10.90
2022-11-04T08:43:42.990Z,11.00
2022-11-04T08:46:10.766Z,11.10
2022-11-04T08:48:38.731Z,11.40
2022-11-04T08:51:07.091Z,11.60
2022-11-04T08:53:34.125Z,11.90
2022-11-04T08:56:08.759Z,12.10
2022-11-04T08:58:35.717Z,12.30
2022-11-04T09:01:06.852Z,12.50
2022-11-04T09:03:34.958Z,12.60
2022-11-04T09:06:01.820Z,12.90
2022-11-04T09:08:28.671Z,13.00
2022-11-04T09:10:55.454Z,13.40
2022-11-04T09:13:22.246Z,13.20
2022-11-04T09:15:49.302Z,13.50
2022-11-04T09:18:16.176Z,13.50
2022-11-04T09:20:43.002Z,13.20
2022-11-04T09:23:10.377Z,13.50
2022-11-04T09:25:37.417Z,14.00
2022-11-04T09:28:04.689Z,13.70
2022-11-04T09:30:31.657Z,13.80
2022-11-04T09:32:58.614Z,13.80
2022-11-04T09:35:27.519Z,13.80
2022-11-04T09:37:54.753Z,13.30
2022-11-04T09:40:23.602Z,13.40
2022-11-04T09:42:53.401Z,13.40
2022-11-04T09:45:24.140Z,13.70
2022-11-04T09:47:52.114Z,13.90
2022-11-04T09:50:21.172Z,14.00
2022-11-04T09:52:51.471Z,14.20
2022-11-04T09:55:24.652Z,13.80
2022-11-04T09:57:54.866Z,14.00
2022-11-04T10:00:21.941Z,13.90
2022-11-04T10:03:05.007Z,14.00
2022-11-04T10:05:34.873Z,13.70
2022-11-04T10:08:01.673Z,13.80
2022-11-04T10:10:28.832Z,13.90
2022-11-04T10:13:07.328Z,13.80
2022-11-04T10:15:38.685Z,14.10
2022-11-04T10:18:20.864Z,14.30
2022-11-04T10:21:07.988Z,14.80
2022-11-04T10:23:40.664Z,14.90
2022-11-04T10:26:13.224Z,14.50
2022-11-04T10:28:44.869Z,14.30
2022-11-04T10:31:16.334Z,14.20
2022-11-04T10:33:52.313Z,14.20
2022-11-04T10:36:19.395Z,14.00
2022-11-04T10:38:48.703Z,13.90
2022-11-04T10:41:19.164Z,13.70
2022-11-04T10:43:46.408Z,13.40
2022-11-04T10:46:19.360Z,13.30
2022-11-04T10:48:51.408Z,13.20
2022-11-04T10:51:22.073Z,13.40
2022-11-04T10:53:54.161Z,13.80
2022-11-04T10:56:44.307Z,14.10
2022-11-04T10:59:20.412Z,14.50
2022-11-04T11:01:55.042Z,14.40
2022-11-04T11:04:33.477Z,13.80
2022-11-04T11:07:05.161Z,13.50
2022-11-04T11:09:33.324Z,13.60
2022-11-04T11:12:01.851Z,13.50
2022-11-04T11:14:28.875Z,13.40
2022-11-04T11:17:18.292Z,13.60
2022-11-04T11:19:50.679Z,13.80
2022-11-04T11:22:34.230Z,14.60
2022-11-04T11:25:13.254Z,15.00
2022-11-04T11:27:41.073Z,15.50
2022-11-04T11:30:19.401Z,15.40
2022-11-04T11:32:46.674Z,15.10
2022-11-04T11:35:17.893Z,14.60
2022-11-04T11:37:48.145Z,14.70
2022-11-04T11:40:32.000Z,15.40
2022-11-04T11:43:00.447Z,15.80
2022-11-04T11:45:27.881Z,15.80
2022-11-04T11:47:57.484Z,15.50
2022-11-04T11:50:31.366Z,15.70
2022-11-04T11:53:15.421Z,15.80
2022-11-04T11:55:57.889Z,15.80
2022-11-04T12:01:26.839Z,15.10
2022-11-04T12:09:53.939Z,14.60
2022-11-04T12:12:23.583Z,15.20
2022-11-04T12:14:56.896Z,15.30
2022-11-04T12:17:23.833Z,15.40
2022-11-04T12:20:08.837Z,15.70
2022-11-04T12:22:51.246Z,16.50
2022-11-04T12:25:27.144Z,16.80
2022-11-04T12:28:12.120Z,17.20
2022-11-04T12:31:02.172Z,17.30
2022-11-04T12:33:35.719Z,17.40
2022-11-04T12:36:12.616Z,17.20
2022-11-04T12:38:39.551Z,17.00
2022-11-04T12:44:26.394Z,16.10
2022-11-04T12:46:58.338Z,16.00
2022-11-04T12:49:28.048Z,15.70
2022-11-04T12:52:13.416Z,15.50
2022-11-04T12:54:40.293Z,14.80
2022-11-04T12:57:14.882Z,15.00
2022-11-04T13:00:03.709Z,15.30
2022-11-04T13:02:32.238Z,15.30
2022-11-04T13:05:03.151Z,15.40
2022-11-04T13:07:32.000Z,15.90
2022-11-04T13:10:15.403Z,16.20
2022-11-04T13:12:43.751Z,15.60
2022-11-04T13:15:13.520Z,15.30
2022-11-04T13:17:41.954Z,15.10
2022-11-04T13:20:14.559Z,14.70
2022-11-04T13:22:43.751Z,14.40
2022-11-04T13:25:23.416Z,14.30
2022-11-04T13:27:50.682Z,14.30
2022-11-04T13:30:17.559Z,14.30
2022-11-04T13:32:49.928Z,14.10
2022-11-04T13:35:39.963Z,13.90
2022-11-04T13:38:15.517Z,13.70
2022-11-04T13:40:48.245Z,13.60
2022-11-04T13:43:33.753Z,13.40
2022-11-04T13:46:00.716Z,13.30
2022-11-04T13:48:29.417Z,13.10
2022-11-04T13:51:18.010Z,13.10
2022-11-04T13:53:57.943Z,13.30
2022-11-04T13:56:34.873Z,13.10
2022-11-04T13:59:04.522Z,13.00
2022-11-04T14:01:32.766Z,13.00
2022-11-04T14:04:05.549Z,13.00
2022-11-04T14:06:50.755Z,13.10
2022-11-04T14:09:32.669Z,13.00
2022-11-04T14:12:11.710Z,13.10
2022-11-04T14:14:39.364Z,13.40
2022-11-04T14:17:27.681Z,13.50
2022-11-04T14:20:00.429Z,13.60
2022-11-04T14:22:31.006Z,14.00
2022-11-04T14:24:59.118Z,14.30
2022-11-04T14:27:38.718Z,14.40
2022-11-04T14:30:06.466Z,14.10
2022-11-04T14:32:39.227Z,14.20
2022-11-04T14:35:07.256Z,14.10
2022-11-04T14:37:35.382Z,14.00
2022-11-04T14:40:04.407Z,14.20
2022-11-04T14:42:46.896Z,14.70
2022-11-04T14:45:16.660Z,14.70
2022-11-04T14:47:46.414Z,14.60
2022-11-04T14:50:16.282Z,14.50
2022-11-04T14:52:50.920Z,14.80
2022-11-04T14:55:19.427Z,14.60
2022-11-04T14:57:50.644Z,14.40
2022-11-04T15:00:25.575Z,14.10
2022-11-04T15:04:08.851Z,13.60
2022-11-04T15:06:07.335Z,13.40
2022-11-04T15:08:34.221Z,13.70
2022-11-04T15:11:01.082Z,13.50
2022-11-04T15:13:27.994Z,13.40
2022-11-04T15:16:02.864Z,13.30
2022-11-04T15:18:30.222Z,13.10
2022-11-04T15:20:58.009Z,12.90
2022-11-04T15:26:06.724Z,13.00
2022-11-04T15:28:35.158Z,12.80
2022-11-04T15:31:01.974Z,12.60
2022-11-04T15:33:29.336Z,12.40
2022-11-04T15:35:56.393Z,12.40
2022-11-04T15:38:25.351Z,12.30
2022-11-04T15:40:52.333Z,12.10
2022-11-04T15:43:19.753Z,11.90
2022-11-04T15:45:46.577Z,11.90
2022-11-04T15:48:22.791Z,11.90
2022-11-04T15:51:00.768Z,12.10
2022-11-04T15:53:27.828Z,12.00
2022-11-04T15:55:55.766Z,11.70
2022-11-04T15:58:23.003Z,11.50
2022-11-04T16:00:54.145Z,11.40
2022-11-04T16:03:22.893Z,11.30
2022-11-04T16:06:10.054Z,11.30
2022-11-04T16:08:37.504Z,11.20
2022-11-04T16:11:22.806Z,11.10
2022-11-04T16:13:49.989Z,11.10
2022-11-04T16:16:20.023Z,11.20
2022-11-04T16:18:56.533Z,11.10
2022-11-04T16:21:36.245Z,11.00
2022-11-04T16:24:05.484Z,11.00
2022-11-04T16:26:44.538Z,11.10
2022-11-04T16:29:18.905Z,11.20
2022-11-04T16:31:46.162Z,10.90
2022-11-04T16:34:13.476Z,10.60
2022-11-04T16:36:40.449Z,10.30
2022-11-04T16:39:08.871Z,10.10
2022-11-04T16:41:37.549Z,10.00
2022-11-04T16:44:05.246Z,9.80
2022-11-04T16:46:32.992Z,9.70
2022-11-04T16:48:59.913Z,9.50
2022-11-04T16:51:26.821Z,9.40
2022-11-04T16:53:54.607Z,9.30
2022-11-04T16:56:23.295Z,9.30
2022-11-04T16:58:50.530Z,9.10
2022-11-04T17:01:19.281Z,9.10
2022-11-04T17:03:46.273Z,9.00
2022-11-04T17:06:14.711Z,8.90
2022-11-04T17:08:42.151Z,8.90
2022-11-04T17:11:09.656Z,8.80
2022-11-04T17:13:36.945Z,9.00
2022-11-04T17:16:04.586Z,9.00
2022-11-04T17:18:31.924Z,9.00
2022-11-04T17:20:59.451Z,9.20
2022-11-04T17:23:26.469Z,9.30
2022-11-04T17:25:53.528Z,9.40
2022-11-04T17:28:20.659Z,9.60
2022-11-04T17:30:47.851Z,9.70
2022-11-04T17:33:15.753Z,9.90
2022-11-04T17:35:43.689Z,10.00
2022-11-04T17:38:11.607Z,10.10
2022-11-04T17:40:59.079Z,10.00
2022-11-04T17:43:44.758Z,9.90
2022-11-04T17:46:30.975Z,10.10
2022-11-04T17:48:58.149Z,10.10
2022-11-04T17:51:25.375Z,10.20
2022-11-04T17:53:52.387Z,10.20
2022-11-04T17:56:20.531Z,10.30
2022-11-04T17:58:47.773Z,10.30
2022-11-04T18:01:15.947Z,10.30
2022-11-04T18:03:43.518Z,10.30
2022-11-04T18:06:10.515Z,10.20
2022-11-04T18:08:38.336Z,10.10
2022-11-04T18:11:06.608Z,10.20
2022-11-04T18:13:34.644Z,10.10
2022-11-04T18:16:12.142Z,10.10
2022-11-04T18:18:39.386Z,10.00
2022-11-04T18:21:07.827Z,10.00
2022-11-04T18:23:35.222Z,9.90
2022-11-04T18:26:02.994Z,9.80
2022-11-04T18:28:30.037Z,9.80
2022-11-04T18:30:56.916Z,9.80
2022-11-04T18:33:23.811Z,9.80
2022-11-04T18:35:50.837Z,9.80
2022-11-04T18:38:17.891Z,9.60
2022-11-04T18:40:45.295Z,9.60
2022-11-04T18:43:12.494Z,9.50
2022-11-04T18:45:39.596Z,9.40
2022-11-04T18:48:07.413Z,9.40
2022-11-04T18:50:34.718Z,9.40
2022-11-04T18:53:01.670Z,9.30
2022-11-04T18:55:28.510Z,9.30
2022-11-04T18:57:55.539Z,9.30
2022-11-04T19:00:22.725Z,9.30
2022-11-04T19:02:49.947Z,9.30
2022-11-04T19:05:16.937Z,9.30
2022-11-04T19:07:44.124Z,9.20
2022-11-04T19:10:11.890Z,9.20
2022-11-04T19:12:57.398Z,9.10
2022-11-04T19:15:25.084Z,9.10
2022-11-04T19:17:52.115Z,9.10
2022-11-04T19:20:19.112Z,9.20
2022-11-04T19:22:46.112Z,9.20
2022-11-04T19:25:13.712Z,9.10
2022-11-04T19:27:40.787Z,9.00
2022-11-04T19:30:08.433Z,9.00
2022-11-04T19:32:35.501Z,9.00
2022-11-04T19:35:02.692Z,8.90
2022-11-04T19:37:29.785Z,8.90
2022-11-04T19:39:56.681Z,8.90
2022-11-04T19:42:42.631Z,8.90
2022-11-04T19:45:09.936Z,9.00
2022-11-04T19:47:36.915Z,8.90
2022-11-04T19:50:03.982Z,8.90
2022-11-04T19:52:30.894Z,8.80
2022-11-04T19:54:57.970Z,9.00
2022-11-04T19:57:25.189Z,9.00
2022-11-04T19:59:52.463Z,8.90
2022-11-04T20:02:19.445Z,9.00
2022-11-04T20:04:47.872Z,9.00
2022-11-04T20:07:15.326Z,9.00
2022-11-04T20:09:42.378Z,8.90
2022-11-04T20:12:28.027Z,9.00
2022-11-04T20:14:55.944Z,9.00
2022-11-04T20:17:23.429Z,8.90
2022-11-04T20:19:50.593Z,8.80
2022-11-04T20:22:17.940Z,8.90
2022-11-04T20:24:45.768Z,8.90
2022-11-04T20:27:15.230Z,8.90
2022-11-04T20:29:42.963Z,8.90
2022-11-04T20:32:09.898Z,8.90
2022-11-04T20:34:36.872Z,9.00
2022-11-04T20:37:03.996Z,9.00
2022-11-04T20:39:30.919Z,9.00
2022-11-04T20:41:57.937Z,9.00
2022-11-04T20:44:25.100Z,9.00
2022-11-04T20:46:51.984Z,9.00
2022-11-04T20:49:18.832Z,9.00
2022-11-04T20:51:54.477Z,8.90
2022-11-04T20:54:22.574Z,9.00
2022-11-04T20:56:49.611Z,8.90
2022-11-04T20:59:18.359Z,9.00
2022-11-04T21:01:46.485Z,9.00
2022-11-04T21:04:21.448Z,9.10
2022-11-04T21:06:48.885Z,9.10
2022-11-04T21:09:18.372Z,9.10
2022-11-04T21:11:45.694Z,9.00
2022-11-04T21:14:14.165Z,9.00
2022-11-04T21:16:41.509Z,8.90
2022-11-04T21:19:08.764Z,9.10
2022-11-04T21:21:35.823Z,9.10
2022-11-04T21:24:05.221Z,9.30
2022-11-04T21:26:34.129Z,9.20
2022-11-04T21:29:02.202Z,9.10
2022-11-04T21:31:30.043Z,9.10
2022-11-04T21:33:57.193Z,9.10
2022-11-04T21:36:24.099Z,9.10
2022-11-04T21:38:51.241Z,8.90
2022-11-04T21:41:28.654Z,9.10
2022-11-04T21:43:56.151Z,9.10
2022-11-04T21:46:23.479Z,9.00
2022-11-04T21:48:50.545Z,9.10
2022-11-04T21:51:21.776Z,9.00
2022-11-04T21:53:49.049Z,9.00
2022-11-04T21:56:15.960Z,9.00
2022-11-04T21:58:43.420Z,9.00
2022-11-04T22:01:11.719Z,9.10
2022-11-04T22:03:38.949Z,9.10
2022-11-04T22:06:12.784Z,9.00
2022-11-04T22:08:43.033Z,9.00
2022-11-04T22:11:17.624Z,9.00
2022-11-04T22:13:44.556Z,9.00
2022-11-04T22:16:19.356Z,9.00
2022-11-04T22:18:46.956Z,9.00
2022-11-04T22:21:15.478Z,9.00
2022-11-04T22:23:42.758Z,9.00
2022-11-04T22:26:13.974Z,8.90
2022-11-04T22:28:41.065Z,9.00
2022-11-04T22:31:13.693Z,9.00
2022-11-04T22:33:40.606Z,8.90
2022-11-04T22:36:07.804Z,8.90
2022-11-04T22:38:35.467Z,9.00
2022-11-04T22:41:03.758Z,9.00
2022-11-04T22:43:30.576Z,9.00
2022-11-04T22:45:57.735Z,9.00
2022-11-04T22:48:24.678Z,9.00
2022-11-04T22:50:56.005Z,9.00
2022-11-04T22:53:23.170Z,9.00
2022-11-04T22:55:50.150Z,9.10
2022-11-04T22:58:17.346Z,9.10
2022-11-04T23:00:44.327Z,9.00
2022-11-04T23:03:11.835Z,9.00
2022-11-04T23:05:38.846Z,9.00
2022-11-04T23:08:05.865Z,9.10
2022-11-04T23:10:51.518Z,9.20
2022-11-04T23:13:37.333Z,9.20
2022-11-04T23:16:22.971Z,9.30
2022-11-04T23:18:50.855Z,9.30
2022-11-04T23:21:37.205Z,9.30
2022-11-04T23:24:22.997Z,9.20
2022-11-04T23:26:49.994Z,9.10
2022-11-04T23:29:35.546Z,9.10
2022-11-04T23:32:02.917Z,9.00
2022-11-04T23:34:48.233Z,9.10
2022-11-04T23:37:15.707Z,9.10
2022-11-04T23:39:43.711Z,9.20
2022-11-04T23:42:17.634Z,9.30
2022-11-04T23:45:03.006Z,9.20
2022-11-04T23:47:48.756Z,9.30
2022-11-04T23:50:34.157Z,9.40
2022-11-04T23:53:20.681Z,9.30
2022-11-04T23:56:06.286Z,9.30
2022-11-04T23:58:52.188Z,9.40
